Navigation: Drive List Submit Your Drive Statistics Feedback Help Privacy About
 
This list is created by those who submitted their information to this page. You cannot expect 100% accuracy, but if there's many entries of the same drive chances are the majority is correct. If the drive you want to submit is already in the list, don't hasitate to submit since you are only confirming that the particular drive work/doesn't work. Recommended screen resolution: 1024x768 or higher.

In the beginning I only included the entries from the xbox-scene forum thread that had a valid model number, or where the model number could be guessed. I have skipped a lot of WD 120GB and Maxtor drives because they didn't provide the model number.

2005-11-18: If you accidentally locked a drive with a wrong password or lost the matching Xbox eeprom to unlock the drive, there's now a new service online that will allow you (for a small fee) to force unlock the hard drive and return it back to normal state. Most of the hard drives from Maxtor, Western Digital, Seagate and Samsung is supported. If you you're serious about getting your data back or the drive working again, you should take a look AFF Repair Station.

2006-05-28: It's been a while since the last news update. Whenever I see a bug or error I update the codebase, and in the last month I've fixed some submission errors, edit auth faults and recently made the sorting and filtering system the way it should be. There is still a problem with invalid submissions in the database and I encourage you to report them so I can remove the entries. Thanks to those who've submitted to the database.

-

Total entries: 3183 Locking: 2461 (77%)
Not locking: 722 (22%)
Most lockable brand: Western Digital
Most lockable drive serie: Hitachi
Most lockable drive: Seagate ST3200822A
Most popular lockable drive size: 120 GB
Most popular lockable drive speed: 7200 RPM
Most popular locking program: ConfigMagic
Search bar Show all
Added Brand Model no. Size RPM Buffer Locking Program XBOX Posted by Comment #
101. 2004-01-01 Maxtor Y30RH3QE 120 GB 7200 2 MB Yes Config ... v1.0 Savage None 0
102. 2004-01-06 Maxtor 6Y200P0062211 200 GB 7200 8 MB Yes ConfigM... v1.5 phantsam None 0
103. 2004-01-06 Maxtor L01P200 200 GB 7200 8 MB Yes Slayer'... v1.4 Synchronic... Also loc... 1
104. 2004-01-10 Maxtor 2F040L0 40 GB 5400 2 MB Yes Slayer'... v1.1 boylan It's the... 1
105. 2004-01-11 Maxtor L01P200 200 GB GB 7200 8 MB Yes Slayer'... v1.0 ti85man None 0
106. 2004-01-11 Maxtor 6E040L0510233 40 GB 7200 N/A No Tried b... v1.3 337 None 4
107. 2004-01-15 Maxtor L01P160 160 GB 7200 8 MB Yes configm... v1.0 DrLeePhD 6y160L0 ... 0
108. 2004-01-16 Maxtor 4A250J8 250 GB 5400 2 MB No configm... Unk. whompis None 0
109. 2004-01-24 Maxtor 4D040H2 40 GB 5400 2 MB No evox, c... v1.0 qtip not lock... 0
110. 2004-01-27 Maxtor 52049H3 20.4 GB 7200 2 MB No ConfigM... v1.0 bosephus Bummer, ... 0
111. 2004-01-30 Maxtor 6Y120L0 120 GB 7200 2 MB Yes ConfigM... v1.4 Kissfan None 0
112. 2004-01-30 Maxtor 6Y120L0 120 GB 7200 2 MB Yes Evoluti... Unk. abdullah None 0
113. 2004-01-30 Maxtor 5T040H4 40 GB 7200 2 MB No Config ... v1.3 zurro None 0
114. 2004-02-01 Maxtor 6Y120P0 120 GB 7200 8 MB Yes ConfigM... v1.4 Antimon51 OEM-driv... 0
115. 2004-02-03 Maxtor 5T030H3 30 GB 7200 2 MB No Configm... Unk. Absolut_Br... Tried so... 3
116. 2004-02-04 Maxtor Y433YHSE 120 GB 7200 8 MB Yes SlaYer'... v1.5 299 It was V... 0
117. 2004-02-13 Maxtor IC35L060AVV207-0 60 GB 7200 2 MB Yes ConfigM... Unk. FuzzyDice None 3
118. 2004-02-16 Maxtor 6Y120P0 120 GB 7200 8 MB Yes ConfigM... v1.4 iZ None 0
119. 2004-02-16 Maxtor 4A320J8 320 GB 5400 2 MB No ConfigM... v1.0 MardukNT Gray mar... 0
120. 2004-02-18 Maxtor 6Y120L0 120 GB 7200 2 MB Yes EvoX v1.0 Pasika I've att... 0
121. 2004-02-20 Maxtor 6Y120P0 120 GB 7200 8 MB Yes NONE v1.0 newb_1 No need ... 0
122. 2004-02-21 Maxtor 4G160J8 160 GB 5400 2 MB No CONFIGM... v1.0 brahm2 :'( 0
123. 2004-02-22 Maxtor MAXTOR 6Y120P0 120 GB 7200 8 MB Yes ConfigM... v1.1 Beer_Man None 0
124. 2004-02-23 Maxtor 6Y160P0 160 GB 7200 8 MB Yes hdlock Unk. DerProfi After I ... 0
125. 2004-02-23 Maxtor 96147U8 60 GB GB 5400 N/A No hdlock Unk. Random didnt tr... 1
126. 2004-03-02 Maxtor L01P120 120 GB 7200 8 MB Yes ConfigM... Unk. rage25x Worked L... 0
127. 2004-03-06 Maxtor 6Y160P0 160 GB 7200 8 MB Yes evox, c... v1.4 DeAdGuY None 0
128. 2004-03-06 Maxtor 6Y120P0032211 160 GB 7200 8 MB Yes evox, c... v1.3 DeAdGuY None 0
129. 2004-03-08 Maxtor 6Y120P0 120 GB 7200 8 MB Yes Configm... v1.0 Elektrik Retail H... 0
130. 2004-03-13 Maxtor 6Y120P0 120 GB 7200 8 MB Yes ConfigM... Unk. Verced Works li... 0
131. 2004-03-14 Maxtor 6Y120L0OEM 120 GB 7200 2 MB Yes Slayer'... v1.4 FuzzyDice None 0
132. 2004-03-23 Maxtor 92049U6 20 GB 5400 N/A No EvoX 39... v1.1 cyclone44 drive wo... 0
133. 2004-03-23 Maxtor 92720U8 25gb GB 5400 2 MB No configm... v1.5 carl None 0
134. 2004-03-23 Maxtor 2B020H1110511 20 GB 5400 N/A No configm... v1.4 ptimale None 1
135. 2004-03-23 Maxtor 6Y060L0 80 GB 7200 2 MB Yes EvoX v1.5 Franton Wonderfu... 0
136. 2004-03-24 Maxtor 6Y120L0 120 GB 7200 2 MB Yes Config ... v1.1 Global War... I modded... 0
137. 2004-03-25 Maxtor 6Y200PO 200 GB 7200 8 MB Yes Slayer'... v1.1 moxSapphyr... Haven't ... 0
138. 2004-03-31 Maxtor 4R080L0 80 GB GB 5400 2 MB Yes ConfigM... v1.1 X-Luke Only Con... 0
139. 2004-04-01 Maxtor 52049H4 20.4 GB 7200 2 MB No ConfigM... v1.0 Moebius None 0
140. 2004-04-01 Maxtor 92041U4 20 GB 5400 N/A No Config ... v1.5 Phelops None 0
141. 2004-04-02 Maxtor 6Y120P0 120 GB 7200 N/A Yes EvoX Unk. JaP None 0
142. 2004-04-02 Maxtor 2R015H1 15GB GB 5400 2 MB No Configm... v1.0 superfisch... None 0
143. 2004-04-03 Maxtor 6Y250P0 250 GB GB 7200 8 MB No Config ... v1.0 Global War... I do not... 0
144. 2004-04-04 Maxtor 6Y160PO 160 GB 7200 2 MB Yes Slayers... v1.2 moxSapphyr... None 0
145. 2004-04-05 Maxtor 6Y120L0 120 GB 7200 2 MB Yes Configm... v1.0 david547 Worked f... 0
146. 2004-04-05 Maxtor 6Y160P0 160 GB 7200 8 MB Yes ConfigM... v1.4 Tidusblitz... Great Dr... 0
147. 2004-04-06 Maxtor 5T030H3 30 GB 7200 2 MB No XeniumO... v1.0 Fog Dogg None 0
148. 2004-04-08 Maxtor 91021U2 10 GB 5400 N/A No none v1.0 mike Wouldnt ... 2
149. 2004-04-17 Maxtor 5T040H4 40 GB 7200 2 MB No Config ... v1.0 tester None 0
150. 2004-04-17 Maxtor 2F030J0310211 30 GB GB 5400 N/A Yes ConfigM... Unk. Jermz None 3
 Page 3 of 18 Entries returned: 852   << First < Previous 1 2 3 4 5 6 7 8 Next > Last >> 
 
  • Click on the particular brand, model number, size or status to filter out all drives that has the same data.
  • Sort the columns by clicking on the labels on the top grey bar, a second click descends the list.
  • Use the search bar to make specific searches, i.e. show all Seagate disks that's 120 GB and has 8 MB cache.
 


Submit your hard drive

Read this before you post
 
Brand
Other brand:
Model number
Model name / serie
Drive size GB
RPM
Other RPM:
Buffersize (in MB) MB (0.1/0.2/0.5/1/2/8/16 MB)
Firmware version
Manufacture date YYYY-MM-DD
Lockable
Program(s)
XBOX version
Your name/nick
Your e-mail
Show e-mail publicly
Verification code Code:
Additional comments / Error messages / Problems
* BOLD = Required